sensor_id;sensor_type;location;lat;lon;timestamp;P1;durP1;ratioP1;P2;durP2;ratioP2
20036;SDS011;10179;42.640;23.312;2023-01-13T00:02:24;6.97;;;4.05;;
20036;SDS011;10179;42.640;23.312;2023-01-13T00:04:49;6.72;;;4.13;;
20036;SDS011;10179;42.640;23.312;2023-01-13T00:07:15;7.50;;;4.43;;
20036;SDS011;10179;42.640;23.312;2023-01-13T00:09:40;6.43;;;4.15;;
20036;SDS011;10179;42.640;23.312;2023-01-13T00:12:06;7.50;;;4.60;;
20036;SDS011;10179;42.640;23.312;2023-01-13T00:14:35;7.63;;;4.00;;
20036;SDS011;10179;42.640;23.312;2023-01-13T00:17:01;7.60;;;4.82;;
20036;SDS011;10179;42.640;23.312;2023-01-13T00:19:27;7.85;;;4.57;;
20036;SDS011;10179;42.640;23.312;2023-01-13T00:21:52;6.30;;;4.43;;
20036;SDS011;10179;42.640;23.312;2023-01-13T00:24:18;6.78;;;4.15;;
20036;SDS011;10179;42.640;23.312;2023-01-13T00:26:43;6.85;;;4.45;;
20036;SDS011;10179;42.640;23.312;2023-01-13T00:29:09;8.50;;;4.63;;
20036;SDS011;10179;42.640;23.312;2023-01-13T00:31:34;5.80;;;3.58;;
20036;SDS011;10179;42.640;23.312;2023-01-13T00:33:59;7.47;;;4.25;;
20036;SDS011;10179;42.640;23.312;2023-01-13T00:36:25;7.20;;;3.75;;
20036;SDS011;10179;42.640;23.312;2023-01-13T00:38:51;6.28;;;3.58;;
20036;SDS011;10179;42.640;23.312;2023-01-13T00:41:18;6.55;;;3.38;;
20036;SDS011;10179;42.640;23.312;2023-01-13T00:43:46;5.47;;;3.00;;
20036;SDS011;10179;42.640;23.312;2023-01-13T00:46:13;5.32;;;3.13;;
20036;SDS011;10179;42.640;23.312;2023-01-13T00:48:40;4.35;;;2.97;;
20036;SDS011;10179;42.640;23.312;2023-01-13T00:51:07;5.50;;;3.20;;
20036;SDS011;10179;42.640;23.312;2023-01-13T00:53:38;4.63;;;3.08;;
20036;SDS011;10179;42.640;23.312;2023-01-13T00:56:06;4.00;;;2.83;;
20036;SDS011;10179;42.640;23.312;2023-01-13T00:58:35;5.78;;;3.38;;
20036;SDS011;10179;42.640;23.312;2023-01-13T01:01:11;4.72;;;3.30;;
20036;SDS011;10179;42.640;23.312;2023-01-13T01:03:42;4.57;;;2.90;;
20036;SDS011;10179;42.640;23.312;2023-01-13T01:06:10;4.97;;;3.05;;
20036;SDS011;10179;42.640;23.312;2023-01-13T01:08:37;4.70;;;3.03;;
20036;SDS011;10179;42.640;23.312;2023-01-13T01:11:04;5.88;;;3.78;;
20036;SDS011;10179;42.640;23.312;2023-01-13T01:13:31;6.53;;;3.75;;
20036;SDS011;10179;42.640;23.312;2023-01-13T01:15:57;5.55;;;3.63;;
20036;SDS011;10179;42.640;23.312;2023-01-13T01:18:22;6.15;;;3.67;;
20036;SDS011;10179;42.640;23.312;2023-01-13T01:20:48;7.00;;;3.97;;
20036;SDS011;10179;42.640;23.312;2023-01-13T01:23:13;6.47;;;3.88;;
20036;SDS011;10179;42.640;23.312;2023-01-13T01:25:39;5.78;;;3.40;;
20036;SDS011;10179;42.640;23.312;2023-01-13T01:28:04;4.60;;;3.17;;
20036;SDS011;10179;42.640;23.312;2023-01-13T01:30:30;4.85;;;3.13;;
20036;SDS011;10179;42.640;23.312;2023-01-13T01:32:55;5.07;;;3.10;;
20036;SDS011;10179;42.640;23.312;2023-01-13T01:35:21;6.43;;;3.83;;
20036;SDS011;10179;42.640;23.312;2023-01-13T01:37:47;5.72;;;3.63;;
20036;SDS011;10179;42.640;23.312;2023-01-13T01:40:13;5.70;;;3.85;;
20036;SDS011;10179;42.640;23.312;2023-01-13T01:42:38;6.43;;;3.75;;
20036;SDS011;10179;42.640;23.312;2023-01-13T01:45:23;5.82;;;3.67;;
20036;SDS011;10179;42.640;23.312;2023-01-13T01:47:55;9.80;;;3.53;;
20036;SDS011;10179;42.640;23.312;2023-01-13T01:50:23;7.53;;;4.20;;
20036;SDS011;10179;42.640;23.312;2023-01-13T01:52:50;7.32;;;4.10;;
20036;SDS011;10179;42.640;23.312;2023-01-13T01:55:22;7.32;;;3.75;;
20036;SDS011;10179;42.640;23.312;2023-01-13T01:57:56;7.65;;;4.53;;
20036;SDS011;10179;42.640;23.312;2023-01-13T02:00:26;6.95;;;3.83;;
20036;SDS011;10179;42.640;23.312;2023-01-13T02:02:52;9.10;;;4.07;;
20036;SDS011;10179;42.640;23.312;2023-01-13T02:05:19;5.30;;;3.47;;
20036;SDS011;10179;42.640;23.312;2023-01-13T02:07:45;8.88;;;4.80;;
20036;SDS011;10179;42.640;23.312;2023-01-13T02:10:14;6.63;;;3.70;;
20036;SDS011;10179;42.640;23.312;2023-01-13T02:12:43;5.85;;;3.63;;
20036;SDS011;10179;42.640;23.312;2023-01-13T02:20:43;7.90;;;4.22;;
20036;SDS011;10179;42.640;23.312;2023-01-13T02:38:34;7.88;;;4.30;;
20036;SDS011;10179;42.640;23.312;2023-01-13T02:41:08;5.80;;;4.20;;
20036;SDS011;10179;42.640;23.312;2023-01-13T02:43:59;5.35;;;3.65;;
20036;SDS011;10179;42.640;23.312;2023-01-13T02:46:42;6.50;;;3.70;;
20036;SDS011;10179;42.640;23.312;2023-01-13T02:49:39;5.82;;;4.07;;
20036;SDS011;10179;42.640;23.312;2023-01-13T02:52:11;6.45;;;3.70;;
20036;SDS011;10179;42.640;23.312;2023-01-13T02:54:41;5.85;;;3.28;;
20036;SDS011;10179;42.640;23.312;2023-01-13T02:57:10;6.78;;;3.53;;
20036;SDS011;10179;42.640;23.312;2023-01-13T02:59:37;4.20;;;3.03;;
20036;SDS011;10179;42.640;23.312;2023-01-13T03:02:05;4.57;;;2.90;;
20036;SDS011;10179;42.640;23.312;2023-01-13T03:09:56;5.95;;;4.05;;
20036;SDS011;10179;42.640;23.312;2023-01-13T03:13:02;6.30;;;3.83;;
20036;SDS011;10179;42.640;23.312;2023-01-13T03:15:36;7.15;;;4.15;;
20036;SDS011;10179;42.640;23.312;2023-01-13T03:20:43;4.22;;;3.22;;
20036;SDS011;10179;42.640;23.312;2023-01-13T03:23:20;6.20;;;3.90;;
20036;SDS011;10179;42.640;23.312;2023-01-13T03:26:20;5.60;;;4.13;;
20036;SDS011;10179;42.640;23.312;2023-01-13T03:28:48;4.97;;;3.35;;
20036;SDS011;10179;42.640;23.312;2023-01-13T03:31:20;6.78;;;4.10;;
20036;SDS011;10179;42.640;23.312;2023-01-13T03:34:06;5.45;;;3.50;;
20036;SDS011;10179;42.640;23.312;2023-01-13T03:36:37;5.38;;;3.42;;
20036;SDS011;10179;42.640;23.312;2023-01-13T03:39:08;5.65;;;3.78;;
20036;SDS011;10179;42.640;23.312;2023-01-13T03:41:41;8.35;;;4.13;;
20036;SDS011;10179;42.640;23.312;2023-01-13T03:44:25;6.40;;;3.45;;
20036;SDS011;10179;42.640;23.312;2023-01-13T03:49:55;7.10;;;3.95;;
20036;SDS011;10179;42.640;23.312;2023-01-13T03:52:27;5.93;;;3.60;;
20036;SDS011;10179;42.640;23.312;2023-01-13T03:55:03;5.15;;;3.40;;
20036;SDS011;10179;42.640;23.312;2023-01-13T03:57:33;6.05;;;3.80;;
20036;SDS011;10179;42.640;23.312;2023-01-13T04:00:03;5.85;;;3.40;;
20036;SDS011;10179;42.640;23.312;2023-01-13T04:02:43;5.63;;;3.35;;
20036;SDS011;10179;42.640;23.312;2023-01-13T04:05:13;7.35;;;3.90;;
20036;SDS011;10179;42.640;23.312;2023-01-13T04:10:11;6.25;;;3.85;;
20036;SDS011;10179;42.640;23.312;2023-01-13T04:15:35;4.85;;;3.42;;
20036;SDS011;10179;42.640;23.312;2023-01-13T04:20:47;6.28;;;3.90;;
20036;SDS011;10179;42.640;23.312;2023-01-13T04:23:14;7.97;;;3.63;;
20036;SDS011;10179;42.640;23.312;2023-01-13T04:25:41;6.63;;;4.05;;
20036;SDS011;10179;42.640;23.312;2023-01-13T04:28:08;6.50;;;3.92;;
20036;SDS011;10179;42.640;23.312;2023-01-13T04:30:34;5.53;;;3.97;;
20036;SDS011;10179;42.640;23.312;2023-01-13T04:33:00;6.82;;;4.25;;
20036;SDS011;10179;42.640;23.312;2023-01-13T04:35:25;5.95;;;3.92;;
20036;SDS011;10179;42.640;23.312;2023-01-13T04:37:51;6.00;;;4.18;;
20036;SDS011;10179;42.640;23.312;2023-01-13T04:40:16;7.72;;;4.18;;
20036;SDS011;10179;42.640;23.312;2023-01-13T04:42:45;6.63;;;4.63;;
20036;SDS011;10179;42.640;23.312;2023-01-13T04:45:11;6.45;;;4.07;;
20036;SDS011;10179;42.640;23.312;2023-01-13T04:47:37;4.90;;;3.70;;
20036;SDS011;10179;42.640;23.312;2023-01-13T04:50:03;6.43;;;3.97;;
20036;SDS011;10179;42.640;23.312;2023-01-13T04:52:28;6.00;;;4.00;;
20036;SDS011;10179;42.640;23.312;2023-01-13T04:54:54;5.60;;;3.65;;
20036;SDS011;10179;42.640;23.312;2023-01-13T04:57:19;5.82;;;3.80;;
20036;SDS011;10179;42.640;23.312;2023-01-13T04:59:45;5.10;;;3.70;;
20036;SDS011;10179;42.640;23.312;2023-01-13T05:02:10;6.63;;;4.45;;
20036;SDS011;10179;42.640;23.312;2023-01-13T05:04:43;6.20;;;4.05;;
20036;SDS011;10179;42.640;23.312;2023-01-13T05:07:12;5.95;;;4.22;;
20036;SDS011;10179;42.640;23.312;2023-01-13T05:09:41;5.85;;;4.03;;
20036;SDS011;10179;42.640;23.312;2023-01-13T05:12:07;6.72;;;4.45;;
20036;SDS011;10179;42.640;23.312;2023-01-13T05:14:52;6.90;;;4.20;;
20036;SDS011;10179;42.640;23.312;2023-01-13T05:17:36;7.18;;;4.50;;
20036;SDS011;10179;42.640;23.312;2023-01-13T05:20:02;7.85;;;4.60;;
20036;SDS011;10179;42.640;23.312;2023-01-13T05:22:28;7.78;;;4.72;;
20036;SDS011;10179;42.640;23.312;2023-01-13T05:25:12;7.47;;;4.45;;
20036;SDS011;10179;42.640;23.312;2023-01-13T05:28:04;8.10;;;4.40;;
20036;SDS011;10179;42.640;23.312;2023-01-13T05:30:33;7.70;;;4.20;;
20036;SDS011;10179;42.640;23.312;2023-01-13T05:33:02;9.73;;;4.45;;
20036;SDS011;10179;42.640;23.312;2023-01-13T05:35:27;8.18;;;4.22;;
20036;SDS011;10179;42.640;23.312;2023-01-13T05:37:53;7.78;;;4.70;;
20036;SDS011;10179;42.640;23.312;2023-01-13T05:40:19;6.57;;;4.32;;
20036;SDS011;10179;42.640;23.312;2023-01-13T05:45:54;8.13;;;4.25;;
20036;SDS011;10179;42.640;23.312;2023-01-13T05:48:28;6.80;;;4.57;;
20036;SDS011;10179;42.640;23.312;2023-01-13T05:50:55;8.65;;;5.20;;
20036;SDS011;10179;42.640;23.312;2023-01-13T05:53:21;7.47;;;4.75;;
20036;SDS011;10179;42.640;23.312;2023-01-13T05:55:48;8.52;;;5.78;;
20036;SDS011;10179;42.640;23.312;2023-01-13T05:58:14;8.68;;;5.65;;
20036;SDS011;10179;42.640;23.312;2023-01-13T06:00:41;10.43;;;6.45;;
20036;SDS011;10179;42.640;23.312;2023-01-13T06:03:06;10.63;;;6.05;;
20036;SDS011;10179;42.640;23.312;2023-01-13T06:05:32;7.68;;;5.22;;
20036;SDS011;10179;42.640;23.312;2023-01-13T06:07:59;11.57;;;6.75;;
20036;SDS011;10179;42.640;23.312;2023-01-13T06:10:26;14.45;;;7.10;;
20036;SDS011;10179;42.640;23.312;2023-01-13T06:12:52;14.25;;;8.35;;
20036;SDS011;10179;42.640;23.312;2023-01-13T06:15:17;14.48;;;7.80;;
20036;SDS011;10179;42.640;23.312;2023-01-13T06:17:43;12.60;;;7.30;;
20036;SDS011;10179;42.640;23.312;2023-01-13T06:20:09;11.43;;;6.85;;
20036;SDS011;10179;42.640;23.312;2023-01-13T06:22:37;15.20;;;6.72;;
20036;SDS011;10179;42.640;23.312;2023-01-13T06:25:07;10.05;;;6.15;;
20036;SDS011;10179;42.640;23.312;2023-01-13T06:27:38;11.63;;;7.10;;
20036;SDS011;10179;42.640;23.312;2023-01-13T06:30:04;10.00;;;5.53;;
20036;SDS011;10179;42.640;23.312;2023-01-13T06:32:31;11.73;;;6.15;;
20036;SDS011;10179;42.640;23.312;2023-01-13T06:35:03;10.27;;;5.78;;
20036;SDS011;10179;42.640;23.312;2023-01-13T06:37:33;10.43;;;6.00;;
20036;SDS011;10179;42.640;23.312;2023-01-13T06:40:00;9.82;;;5.78;;
20036;SDS011;10179;42.640;23.312;2023-01-13T06:42:28;10.02;;;6.38;;
20036;SDS011;10179;42.640;23.312;2023-01-13T06:45:17;12.45;;;6.32;;
20036;SDS011;10179;42.640;23.312;2023-01-13T06:47:42;10.98;;;6.35;;
20036;SDS011;10179;42.640;23.312;2023-01-13T06:50:08;10.23;;;6.20;;
20036;SDS011;10179;42.640;23.312;2023-01-13T06:52:34;11.77;;;6.28;;
20036;SDS011;10179;42.640;23.312;2023-01-13T06:54:59;10.32;;;6.03;;
20036;SDS011;10179;42.640;23.312;2023-01-13T06:57:25;10.57;;;6.30;;
20036;SDS011;10179;42.640;23.312;2023-01-13T06:59:50;16.38;;;6.43;;
20036;SDS011;10179;42.640;23.312;2023-01-13T07:02:16;10.18;;;6.45;;
20036;SDS011;10179;42.640;23.312;2023-01-13T07:04:41;12.18;;;6.05;;
20036;SDS011;10179;42.640;23.312;2023-01-13T07:07:08;9.75;;;5.45;;
20036;SDS011;10179;42.640;23.312;2023-01-13T07:09:34;12.90;;;6.00;;
20036;SDS011;10179;42.640;23.312;2023-01-13T07:11:59;10.07;;;5.75;;
20036;SDS011;10179;42.640;23.312;2023-01-13T07:14:24;10.52;;;6.05;;
20036;SDS011;10179;42.640;23.312;2023-01-13T07:17:08;12.55;;;6.60;;
20036;SDS011;10179;42.640;23.312;2023-01-13T07:19:34;12.02;;;6.28;;
20036;SDS011;10179;42.640;23.312;2023-01-13T07:21:59;9.00;;;5.28;;
20036;SDS011;10179;42.640;23.312;2023-01-13T07:24:25;12.23;;;6.30;;
20036;SDS011;10179;42.640;23.312;2023-01-13T07:26:50;10.65;;;6.03;;
20036;SDS011;10179;42.640;23.312;2023-01-13T07:29:16;11.10;;;6.05;;
20036;SDS011;10179;42.640;23.312;2023-01-13T07:31:42;10.52;;;5.85;;
20036;SDS011;10179;42.640;23.312;2023-01-13T07:34:08;11.52;;;6.18;;
20036;SDS011;10179;42.640;23.312;2023-01-13T07:36:33;10.48;;;5.95;;
20036;SDS011;10179;42.640;23.312;2023-01-13T07:38:59;10.52;;;6.43;;
20036;SDS011;10179;42.640;23.312;2023-01-13T07:41:24;10.52;;;5.93;;
20036;SDS011;10179;42.640;23.312;2023-01-13T07:44:08;8.98;;;5.22;;
20036;SDS011;10179;42.640;23.312;2023-01-13T07:46:35;8.48;;;5.28;;
20036;SDS011;10179;42.640;23.312;2023-01-13T07:49:04;11.25;;;6.25;;
20036;SDS011;10179;42.640;23.312;2023-01-13T07:51:29;9.70;;;6.10;;
20036;SDS011;10179;42.640;23.312;2023-01-13T07:53:55;12.80;;;6.63;;
20036;SDS011;10179;42.640;23.312;2023-01-13T07:56:21;12.70;;;7.45;;
20036;SDS011;10179;42.640;23.312;2023-01-13T07:58:46;15.60;;;7.80;;
20036;SDS011;10179;42.640;23.312;2023-01-13T08:01:15;15.10;;;8.02;;
20036;SDS011;10179;42.640;23.312;2023-01-13T08:03:42;14.00;;;7.75;;
20036;SDS011;10179;42.640;23.312;2023-01-13T08:06:08;13.65;;;7.75;;
20036;SDS011;10179;42.640;23.312;2023-01-13T08:08:35;20.50;;;9.07;;
20036;SDS011;10179;42.640;23.312;2023-01-13T08:11:01;20.02;;;10.10;;
20036;SDS011;10179;42.640;23.312;2023-01-13T08:13:28;14.35;;;8.23;;
20036;SDS011;10179;42.640;23.312;2023-01-13T08:15:58;25.20;;;11.68;;
20036;SDS011;10179;42.640;23.312;2023-01-13T08:18:31;16.17;;;8.80;;
20036;SDS011;10179;42.640;23.312;2023-01-13T08:20:59;16.30;;;8.60;;
20036;SDS011;10179;42.640;23.312;2023-01-13T08:23:26;14.68;;;8.05;;
20036;SDS011;10179;42.640;23.312;2023-01-13T08:25:52;15.23;;;8.35;;
20036;SDS011;10179;42.640;23.312;2023-01-13T08:28:17;16.13;;;7.97;;
20036;SDS011;10179;42.640;23.312;2023-01-13T08:30:43;12.25;;;7.82;;
20036;SDS011;10179;42.640;23.312;2023-01-13T08:33:09;23.20;;;11.60;;
20036;SDS011;10179;42.640;23.312;2023-01-13T08:35:36;21.83;;;10.60;;
20036;SDS011;10179;42.640;23.312;2023-01-13T08:38:03;16.48;;;8.68;;
20036;SDS011;10179;42.640;23.312;2023-01-13T08:40:29;14.68;;;7.72;;
20036;SDS011;10179;42.640;23.312;2023-01-13T08:42:55;14.98;;;8.45;;
20036;SDS011;10179;42.640;23.312;2023-01-13T08:45:21;21.13;;;9.70;;
20036;SDS011;10179;42.640;23.312;2023-01-13T08:47:47;20.73;;;9.48;;
20036;SDS011;10179;42.640;23.312;2023-01-13T08:50:12;13.80;;;7.80;;
20036;SDS011;10179;42.640;23.312;2023-01-13T08:52:38;23.45;;;6.82;;
20036;SDS011;10179;42.640;23.312;2023-01-13T08:55:04;15.95;;;6.97;;
20036;SDS011;10179;42.640;23.312;2023-01-13T08:57:30;14.98;;;7.53;;
20036;SDS011;10179;42.640;23.312;2023-01-13T08:59:55;17.58;;;7.97;;
20036;SDS011;10179;42.640;23.312;2023-01-13T09:02:21;13.85;;;6.40;;
20036;SDS011;10179;42.640;23.312;2023-01-13T09:04:47;13.80;;;7.18;;
20036;SDS011;10179;42.640;23.312;2023-01-13T09:07:13;16.13;;;7.10;;
20036;SDS011;10179;42.640;23.312;2023-01-13T09:09:39;15.65;;;6.00;;
20036;SDS011;10179;42.640;23.312;2023-01-13T09:12:05;13.48;;;6.55;;
20036;SDS011;10179;42.640;23.312;2023-01-13T09:14:49;13.30;;;6.88;;
20036;SDS011;10179;42.640;23.312;2023-01-13T09:17:15;12.57;;;6.57;;
20036;SDS011;10179;42.640;23.312;2023-01-13T09:19:41;20.20;;;6.88;;
20036;SDS011;10179;42.640;23.312;2023-01-13T09:22:06;17.13;;;7.95;;
20036;SDS011;10179;42.640;23.312;2023-01-13T09:24:37;15.65;;;7.32;;
20036;SDS011;10179;42.640;23.312;2023-01-13T09:27:03;18.98;;;6.43;;
20036;SDS011;10179;42.640;23.312;2023-01-13T09:29:28;14.15;;;6.07;;
20036;SDS011;10179;42.640;23.312;2023-01-13T09:31:54;16.60;;;5.60;;
20036;SDS011;10179;42.640;23.312;2023-01-13T09:34:21;7.45;;;3.38;;
20036;SDS011;10179;42.640;23.312;2023-01-13T09:37:05;7.57;;;3.88;;
20036;SDS011;10179;42.640;23.312;2023-01-13T09:39:32;13.48;;;5.45;;
20036;SDS011;10179;42.640;23.312;2023-01-13T09:42:02;10.45;;;4.78;;
20036;SDS011;10179;42.640;23.312;2023-01-13T09:44:55;11.10;;;5.00;;
20036;SDS011;10179;42.640;23.312;2023-01-13T09:52:43;17.00;;;7.43;;
20036;SDS011;10179;42.640;23.312;2023-01-13T10:00:19;11.50;;;5.70;;
20036;SDS011;10179;42.640;23.312;2023-01-13T10:08:04;6.00;;;3.33;;
20036;SDS011;10179;42.640;23.312;2023-01-13T10:10:38;6.07;;;3.28;;
20036;SDS011;10179;42.640;23.312;2023-01-13T10:13:10;5.60;;;3.30;;
20036;SDS011;10179;42.640;23.312;2023-01-13T10:15:44;8.63;;;3.85;;
20036;SDS011;10179;42.640;23.312;2023-01-13T10:18:35;12.45;;;6.13;;
20036;SDS011;10179;42.640;23.312;2023-01-13T10:24:03;12.57;;;4.07;;
20036;SDS011;10179;42.640;23.312;2023-01-13T10:29:40;5.18;;;3.47;;
20036;SDS011;10179;42.640;23.312;2023-01-13T10:32:06;6.07;;;3.47;;
20036;SDS011;10179;42.640;23.312;2023-01-13T10:34:31;5.78;;;3.40;;
20036;SDS011;10179;42.640;23.312;2023-01-13T10:37:20;7.65;;;3.28;;
20036;SDS011;10179;42.640;23.312;2023-01-13T10:39:47;6.43;;;3.63;;
20036;SDS011;10179;42.640;23.312;2023-01-13T10:42:17;11.23;;;5.95;;
20036;SDS011;10179;42.640;23.312;2023-01-13T10:44:56;13.45;;;6.60;;
20036;SDS011;10179;42.640;23.312;2023-01-13T10:47:33;6.28;;;3.92;;
20036;SDS011;10179;42.640;23.312;2023-01-13T10:55:24;6.50;;;3.33;;
20036;SDS011;10179;42.640;23.312;2023-01-13T10:57:57;7.53;;;3.80;;
20036;SDS011;10179;42.640;23.312;2023-01-13T11:00:36;6.00;;;3.55;;
20036;SDS011;10179;42.640;23.312;2023-01-13T11:03:11;6.82;;;3.42;;
20036;SDS011;10179;42.640;23.312;2023-01-13T11:05:37;7.70;;;3.03;;
20036;SDS011;10179;42.640;23.312;2023-01-13T11:08:03;6.97;;;3.97;;
20036;SDS011;10179;42.640;23.312;2023-01-13T11:10:29;7.68;;;3.05;;
20036;SDS011;10179;42.640;23.312;2023-01-13T11:13:10;19.13;;;7.68;;
20036;SDS011;10179;42.640;23.312;2023-01-13T11:15:45;13.50;;;3.55;;
20036;SDS011;10179;42.640;23.312;2023-01-13T11:18:25;3.03;;;1.98;;
20036;SDS011;10179;42.640;23.312;2023-01-13T11:21:34;6.15;;;2.25;;
20036;SDS011;10179;42.640;23.312;2023-01-13T11:24:09;2.90;;;1.95;;
20036;SDS011;10179;42.640;23.312;2023-01-13T11:26:43;2.97;;;2.00;;
20036;SDS011;10179;42.640;23.312;2023-01-13T11:29:23;3.65;;;2.42;;
20036;SDS011;10179;42.640;23.312;2023-01-13T11:32:12;4.95;;;2.47;;
20036;SDS011;10179;42.640;23.312;2023-01-13T11:34:43;5.72;;;2.45;;
20036;SDS011;10179;42.640;23.312;2023-01-13T11:37:20;4.50;;;2.13;;
20036;SDS011;10179;42.640;23.312;2023-01-13T11:42:48;7.63;;;2.90;;
20036;SDS011;10179;42.640;23.312;2023-01-13T11:45:34;4.55;;;2.78;;
20036;SDS011;10179;42.640;23.312;2023-01-13T11:48:02;5.80;;;3.28;;
20036;SDS011;10179;42.640;23.312;2023-01-13T12:06:47;10.45;;;4.15;;
20036;SDS011;10179;42.640;23.312;2023-01-13T12:09:36;15.75;;;3.50;;
20036;SDS011;10179;42.640;23.312;2023-01-13T12:17:19;10.60;;;3.53;;
20036;SDS011;10179;42.640;23.312;2023-01-13T12:19:47;8.45;;;3.30;;
20036;SDS011;10179;42.640;23.312;2023-01-13T12:22:15;10.10;;;3.92;;
20036;SDS011;10179;42.640;23.312;2023-01-13T12:24:51;6.57;;;3.80;;
20036;SDS011;10179;42.640;23.312;2023-01-13T12:29:47;8.20;;;3.72;;
20036;SDS011;10179;42.640;23.312;2023-01-13T12:32:17;11.00;;;4.20;;
20036;SDS011;10179;42.640;23.312;2023-01-13T12:35:01;7.28;;;4.15;;
20036;SDS011;10179;42.640;23.312;2023-01-13T12:37:51;8.77;;;4.70;;
20036;SDS011;10179;42.640;23.312;2023-01-13T12:43:47;10.98;;;4.43;;
20036;SDS011;10179;42.640;23.312;2023-01-13T12:46:33;9.82;;;4.93;;
20036;SDS011;10179;42.640;23.312;2023-01-13T12:49:15;12.68;;;5.40;;
20036;SDS011;10179;42.640;23.312;2023-01-13T12:59:43;6.95;;;4.70;;
20036;SDS011;10179;42.640;23.312;2023-01-13T13:04:48;10.32;;;5.25;;
20036;SDS011;10179;42.640;23.312;2023-01-13T13:07:18;10.40;;;5.55;;
20036;SDS011;10179;42.640;23.312;2023-01-13T13:15:35;11.50;;;4.65;;
20036;SDS011;10179;42.640;23.312;2023-01-13T13:20:51;9.90;;;4.70;;
20036;SDS011;10179;42.640;23.312;2023-01-13T13:26:30;7.68;;;3.92;;
20036;SDS011;10179;42.640;23.312;2023-01-13T13:34:37;5.90;;;3.63;;
20036;SDS011;10179;42.640;23.312;2023-01-13T13:40:37;10.57;;;4.20;;
20036;SDS011;10179;42.640;23.312;2023-01-13T13:43:23;6.05;;;3.42;;
20036;SDS011;10179;42.640;23.312;2023-01-13T13:46:43;9.30;;;3.72;;
20036;SDS011;10179;42.640;23.312;2023-01-13T13:49:12;7.57;;;3.63;;
20036;SDS011;10179;42.640;23.312;2023-01-13T13:51:44;4.88;;;3.33;;
20036;SDS011;10179;42.640;23.312;2023-01-13T13:54:15;7.90;;;4.05;;
20036;SDS011;10179;42.640;23.312;2023-01-13T13:56:44;8.23;;;4.00;;
20036;SDS011;10179;42.640;23.312;2023-01-13T13:59:11;8.55;;;3.63;;
20036;SDS011;10179;42.640;23.312;2023-01-13T14:01:42;6.15;;;3.83;;
20036;SDS011;10179;42.640;23.312;2023-01-13T14:04:22;7.90;;;4.25;;
20036;SDS011;10179;42.640;23.312;2023-01-13T14:06:55;7.57;;;3.78;;
20036;SDS011;10179;42.640;23.312;2023-01-13T14:09:22;9.35;;;4.38;;
20036;SDS011;10179;42.640;23.312;2023-01-13T14:14:43;9.48;;;4.20;;
20036;SDS011;10179;42.640;23.312;2023-01-13T14:17:42;19.58;;;5.43;;
20036;SDS011;10179;42.640;23.312;2023-01-13T14:20:06;18.17;;;8.82;;
20036;SDS011;10179;42.640;23.312;2023-01-13T14:22:45;8.27;;;4.03;;
20036;SDS011;10179;42.640;23.312;2023-01-13T14:27:53;9.23;;;4.70;;
20036;SDS011;10179;42.640;23.312;2023-01-13T14:30:20;7.78;;;4.25;;
20036;SDS011;10179;42.640;23.312;2023-01-13T14:32:49;12.10;;;4.30;;
20036;SDS011;10179;42.640;23.312;2023-01-13T14:35:15;7.38;;;4.40;;
20036;SDS011;10179;42.640;23.312;2023-01-13T14:37:42;9.82;;;4.75;;
20036;SDS011;10179;42.640;23.312;2023-01-13T14:43:09;11.70;;;5.10;;
20036;SDS011;10179;42.640;23.312;2023-01-13T14:45:38;8.13;;;5.38;;
20036;SDS011;10179;42.640;23.312;2023-01-13T14:48:08;10.38;;;6.15;;
20036;SDS011;10179;42.640;23.312;2023-01-13T14:50:34;11.25;;;6.30;;
20036;SDS011;10179;42.640;23.312;2023-01-13T14:53:00;10.93;;;6.05;;
20036;SDS011;10179;42.640;23.312;2023-01-13T14:58:15;15.07;;;6.72;;
20036;SDS011;10179;42.640;23.312;2023-01-13T15:00:41;13.98;;;7.18;;
20036;SDS011;10179;42.640;23.312;2023-01-13T15:03:07;16.77;;;7.07;;
20036;SDS011;10179;42.640;23.312;2023-01-13T15:05:34;17.67;;;7.80;;
20036;SDS011;10179;42.640;23.312;2023-01-13T15:10:34;12.60;;;7.00;;
20036;SDS011;10179;42.640;23.312;2023-01-13T15:13:05;14.10;;;8.25;;
20036;SDS011;10179;42.640;23.312;2023-01-13T15:15:32;14.80;;;7.50;;
20036;SDS011;10179;42.640;23.312;2023-01-13T15:18:01;13.95;;;7.28;;
20036;SDS011;10179;42.640;23.312;2023-01-13T15:20:33;14.48;;;8.30;;
20036;SDS011;10179;42.640;23.312;2023-01-13T15:22:59;15.15;;;8.20;;
20036;SDS011;10179;42.640;23.312;2023-01-13T15:25:30;20.33;;;9.82;;
20036;SDS011;10179;42.640;23.312;2023-01-13T15:27:56;18.63;;;9.20;;
20036;SDS011;10179;42.640;23.312;2023-01-13T15:30:23;17.23;;;9.77;;
20036;SDS011;10179;42.640;23.312;2023-01-13T15:32:52;20.08;;;9.38;;
20036;SDS011;10179;42.640;23.312;2023-01-13T15:35:19;15.15;;;9.05;;
20036;SDS011;10179;42.640;23.312;2023-01-13T15:37:46;21.75;;;12.80;;
20036;SDS011;10179;42.640;23.312;2023-01-13T15:40:14;26.75;;;14.52;;
20036;SDS011;10179;42.640;23.312;2023-01-13T15:42:41;15.55;;;8.82;;
20036;SDS011;10179;42.640;23.312;2023-01-13T15:45:25;15.70;;;7.78;;
20036;SDS011;10179;42.640;23.312;2023-01-13T15:48:10;14.27;;;7.38;;
20036;SDS011;10179;42.640;23.312;2023-01-13T15:50:35;12.98;;;7.53;;
20036;SDS011;10179;42.640;23.312;2023-01-13T15:53:01;14.32;;;8.30;;
20036;SDS011;10179;42.640;23.312;2023-01-13T15:55:27;20.55;;;9.27;;
20036;SDS011;10179;42.640;23.312;2023-01-13T15:57:53;21.13;;;8.73;;
20036;SDS011;10179;42.640;23.312;2023-01-13T16:00:19;22.80;;;9.07;;
20036;SDS011;10179;42.640;23.312;2023-01-13T16:02:46;18.95;;;8.73;;
20036;SDS011;10179;42.640;23.312;2023-01-13T16:05:11;15.18;;;7.97;;
20036;SDS011;10179;42.640;23.312;2023-01-13T16:07:37;16.33;;;8.75;;
20036;SDS011;10179;42.640;23.312;2023-01-13T16:10:04;15.00;;;8.95;;
20036;SDS011;10179;42.640;23.312;2023-01-13T16:12:32;15.68;;;8.95;;
20036;SDS011;10179;42.640;23.312;2023-01-13T16:14:58;17.23;;;9.30;;
20036;SDS011;10179;42.640;23.312;2023-01-13T16:17:24;19.08;;;10.25;;
20036;SDS011;10179;42.640;23.312;2023-01-13T16:19:53;16.60;;;10.23;;
20036;SDS011;10179;42.640;23.312;2023-01-13T16:22:19;16.83;;;9.70;;
20036;SDS011;10179;42.640;23.312;2023-01-13T16:24:44;20.75;;;9.98;;
20036;SDS011;10179;42.640;23.312;2023-01-13T16:27:14;17.83;;;10.88;;
20036;SDS011;10179;42.640;23.312;2023-01-13T16:29:44;22.27;;;11.25;;
20036;SDS011;10179;42.640;23.312;2023-01-13T16:32:10;20.70;;;10.77;;
20036;SDS011;10179;42.640;23.312;2023-01-13T16:34:36;22.77;;;11.70;;
20036;SDS011;10179;42.640;23.312;2023-01-13T16:37:02;20.63;;;10.23;;
20036;SDS011;10179;42.640;23.312;2023-01-13T16:39:27;16.90;;;9.75;;
20036;SDS011;10179;42.640;23.312;2023-01-13T16:41:53;21.48;;;10.18;;
20036;SDS011;10179;42.640;23.312;2023-01-13T16:44:19;22.80;;;10.82;;
20036;SDS011;10179;42.640;23.312;2023-01-13T16:46:44;20.10;;;10.50;;
20036;SDS011;10179;42.640;23.312;2023-01-13T16:49:13;20.25;;;10.55;;
20036;SDS011;10179;42.640;23.312;2023-01-13T16:51:39;26.98;;;11.27;;
20036;SDS011;10179;42.640;23.312;2023-01-13T16:54:05;29.80;;;11.20;;
20036;SDS011;10179;42.640;23.312;2023-01-13T16:56:31;24.63;;;10.55;;
20036;SDS011;10179;42.640;23.312;2023-01-13T16:58:59;23.33;;;10.48;;
20036;SDS011;10179;42.640;23.312;2023-01-13T17:01:30;22.85;;;10.10;;
20036;SDS011;10179;42.640;23.312;2023-01-13T17:03:58;20.85;;;10.32;;
20036;SDS011;10179;42.640;23.312;2023-01-13T17:06:28;20.17;;;10.57;;
20036;SDS011;10179;42.640;23.312;2023-01-13T17:08:59;21.80;;;10.90;;
20036;SDS011;10179;42.640;23.312;2023-01-13T17:11:32;28.92;;;12.32;;